Latest Weather Observations for Parndana

IDS60801

Issued at 11:02 pm CDT Saturday 28 February 2015 (issued every 30 minutes, with the page automatically refreshed every 10 minutes)

About weather observations | Map of weather stations | Latest weather observations for SA | Other Formats
Station Details ID: 022843 Name: PARNDANA CFS AWS Lat: -35.79 Lon: 137.25 Height: 165.0 m
Data from the previous 72 hours. | See also: Recent months at Parndana
Date/Time
CDT
Temp
°C
App
Temp
°C
Dew
Point
Rel
Hum
%
Delta-T
°C
Wind Press
QNH
hPa
Press
MSL
hPa
Rain
since 9 am
mm
Dir
 
Spd
km/h
Gust
km/h
Spd
kts
Gust
kts
28/11:00pm 15.3 11.0 10.9 75 2.4 SSW 24 33 13 18 - - 0.4
28/10:30pm 15.1 11.2 10.7 75 2.3 SSW 22 32 12 17 - - 0.4
28/10:00pm 15.3 11.4 10.9 75 2.4 SSW 22 28 12 15 - - 0.4
28/09:30pm 15.6 11.4 11.2 75 2.4 SSW 24 32 13 17 - - 0.4
28/09:00pm 16.1 11.8 11.9 76 2.3 SW 26 37 14 20 - - 0.4
28/08:30pm 16.2 12.5 12.6 79 2.0 SW 24 32 13 17 - - 0.4
28/08:00pm 16.9 13.3 13.0 78 2.2 SW 24 35 13 19 - - 0.4
28/07:30pm 17.0 12.5 12.5 75 2.5 SSW 28 39 15 21 - - 0.4
28/07:00pm 17.2 12.6 12.3 73 2.7 SSW 28 39 15 21 - - 0.4
28/06:30pm 18.5 13.0 12.5 68 3.4 SSW 33 44 18 24 - - 0.4
28/06:00pm 18.9 12.2 12.2 65 3.8 SSW 39 48 21 26 - - 0.4
28/05:30pm 19.7 14.4 13.2 66 3.7 SSW 33 46 18 25 - - 0.4
28/05:00pm 18.7 13.4 14.2 75 2.6 SSW 35 44 19 24 - - 0.4
28/04:30pm 18.6 14.1 15.5 82 1.8 SSW 33 44 18 24 - - 0.4
28/04:00pm 18.0 15.3 16.5 91 0.9 SSW 26 39 14 21 - - 0.4
28/03:30pm 18.3 15.9 16.5 89 1.1 SSW 24 37 13 20 - - 0.4
28/03:00pm 19.7 17.0 15.6 77 2.4 SSW 24 33 13 18 - - 0.2
28/02:30pm 19.2 15.7 15.5 79 2.2 SSW 28 39 15 21 - - 0.2
28/02:00pm 19.2 16.3 16.1 82 1.9 SSW 26 33 14 18 - - 0.2
28/01:30pm 20.3 17.6 17.5 84 1.7 SSW 28 35 15 19 - - 0.2
28/01:00pm 22.7 19.1 15.3 63 4.4 SW 28 39 15 21 - - 0.0
28/12:30pm 25.1 20.2 12.7 46 7.2 SW 30 39 16 21 - - 0.0
28/12:00pm 26.5 22.2 14.3 47 7.3 SW 30 41 16 22 - - 0.0
28/11:30am 26.0 22.7 14.1 47 7.1 SSW 24 37 13 20 - - 0.0
28/11:00am 26.1 24.8 15.8 53 6.3 SW 17 24 9 13 - - 0.0
28/10:30am 24.8 23.6 16.0 58 5.4 SSW 17 24 9 13 - - 0.0
28/10:00am 24.5 23.5 16.7 61 4.8 S 17 22 9 12 - - 0.0
28/09:30am 25.5 23.9 14.0 49 6.8 SW 15 28 8 15 - - 0.0
28/09:00am 24.8 24.1 14.3 52 6.3 NW 11 15 6 8 - - 0.2
28/08:30am 23.0 22.8 14.6 59 5.0 NNW 9 11 5 6 - - 0.2
28/08:00am 20.8 20.4 14.0 65 4.0 NW 9 9 5 5 - - 0.2
28/07:30am 20.3 19.4 13.7 66 3.8 NNW 11 13 6 7 - - 0.2
28/07:00am 20.5 19.6 13.7 65 3.9 N 11 15 6 8 - - 0.2
28/06:30am 19.7 19.4 14.5 72 3.0 N 9 13 5 7 - - 0.2
28/06:00am 19.6 19.4 14.6 73 2.9 NNE 9 9 5 5 - - 0.2
28/05:30am 20.6 20.0 14.7 69 3.5 N 11 15 6 8 - - 0.2
28/05:00am 20.4 19.8 14.7 70 3.4 N 11 13 6 7 - - 0.2
28/04:30am 19.7 19.1 14.7 73 2.9 NNE 11 13 6 7 - - 0.2
28/04:00am 19.6 19.5 15.0 75 2.7 NNW 9 9 5 5 - - 0.2
28/03:30am 20.1 20.0 14.9 72 3.1 N 9 11 5 6 - - 0.2
28/03:00am 20.5 20.5 15.3 72 3.1 NNE 9 15 5 8 - - 0.2
28/02:30am 20.4 21.1 15.6 74 2.9 NE 6 9 3 5 - - 0.2
28/02:00am 20.1 19.5 15.7 76 2.6 NE 13 17 7 9 - - 0.2
28/01:30am 19.9 18.9 15.5 76 2.6 NE 15 20 8 11 - - 0.2
28/01:00am 19.9 19.9 15.1 74 2.8 ENE 9 13 5 7 - - 0.2
28/12:30am 19.7 18.6 15.4 76 2.6 NE 15 19 8 10 - - 0.2
28/12:00am 19.6 19.2 16.1 80 2.1 NE 13 17 7 9 - - 0.2
 
Date/Time
CDT
Temp
°C
App
Temp
°C
Dew
Point
Rel
Hum
%
Delta-T
°C
Wind Press
QNH
hPa
Press
MSL
hPa
Rain
since 9 am
mm
Dir
 
Spd
km/h
Gust
km/h
Spd
kts
Gust
kts
27/11:30pm 19.7 19.3 16.2 80 2.1 NNE 13 17 7 9 - - 0.2
27/11:00pm 19.2 19.0 16.6 85 1.6 NE 13 17 7 9 - - 0.2
27/10:30pm 18.8 19.0 16.8 88 1.2 ENE 11 13 6 7 - - 0.2
27/10:00pm 18.7 19.4 17.0 90 1.0 ENE 9 11 5 6 - - 0.2
27/09:30pm 19.0 18.8 16.6 86 1.5 ESE 13 17 7 9 - - 0.2
27/09:00pm 20.2 21.0 15.8 76 2.6 SSE 6 9 3 5 - - 0.2
27/08:30pm 20.6 22.7 16.2 76 2.7 CALM 0 0 0 0 - - 0.2
27/08:00pm 20.7 21.4 15.7 73 3.0 SSE 6 7 3 4 - - 0.2
27/07:30pm 21.1 21.5 17.3 79 2.3 ESE 11 13 6 7 - - 0.2
27/07:00pm 22.9 24.0 17.1 70 3.6 SE 7 9 4 5 - - 0.0
27/06:30pm 24.6 25.5 16.1 59 5.2 SSE 6 7 3 4 - - 0.0
27/06:00pm 26.1 27.4 15.2 51 6.6 S 2 4 1 2 - - 0.0
27/05:30pm 27.0 26.8 13.7 44 7.9 SE 7 9 4 5 - - 0.0
27/05:00pm 27.7 27.6 12.1 38 9.1 SSE 4 7 2 4 - - 0.0
27/04:30pm 27.9 26.9 12.3 38 9.1 S 9 11 5 6 - - 0.0
27/04:00pm 28.4 27.3 11.9 36 9.6 SSW 9 15 5 8 - - 0.0
27/03:30pm 29.1 27.1 10.3 31 10.7 W 11 17 6 9 - - 0.0
27/03:00pm 29.1 27.8 9.8 30 10.9 WNW 7 11 4 6 - - 0.0
27/02:30pm 28.9 27.6 10.1 31 10.7 NW 7 11 4 6 - - 0.0
27/02:00pm 29.3 27.0 10.4 31 10.8 NNW 13 19 7 10 - - 0.0
27/01:30pm 28.2 25.5 10.4 33 10.1 NNW 15 19 8 10 - - 0.0
27/01:00pm 29.8 26.9 10.9 31 10.9 NNW 17 22 9 12 - - 0.0
27/12:30pm 29.1 26.0 10.3 31 10.7 N 17 24 9 13 - - 0.0
27/12:00pm 28.2 24.6 10.4 33 10.1 N 20 28 11 15 - - 0.0
27/11:30am 26.7 23.9 11.2 38 8.9 NNE 17 24 9 13 - - 0.0
27/11:00am 25.7 23.2 11.1 40 8.3 NNE 15 22 8 12 - - 0.0
27/10:30am 22.8 20.7 12.4 52 6.0 NNE 15 19 8 10 - - 0.0
27/10:00am 22.0 20.8 12.8 56 5.3 NNE 11 17 6 9 - - 0.0
27/09:30am 21.0 19.2 12.2 57 5.0 NNE 13 19 7 10 - - 0.0
27/09:00am 20.6 20.1 13.8 65 3.9 NNE 9 13 5 7 - - 0.0
27/08:30am 18.2 18.7 15.6 85 1.5 NNE 7 13 4 7 - - 0.0
27/08:00am 16.5 16.9 15.2 92 0.8 ENE 7 9 4 5 - - 0.0
27/07:30am 15.4 15.6 14.6 95 0.5 E 7 9 4 5 - - 0.0
27/07:00am 14.5 14.4 13.9 96 0.3 E 7 9 4 5 - - 0.0
27/06:30am 14.4 14.3 13.8 96 0.3 E 7 11 4 6 - - 0.0
27/06:00am 13.5 13.3 12.9 96 0.3 SSE 6 7 3 4 - - 0.0
27/05:30am 14.4 15.2 13.8 96 0.3 E 2 4 1 2 - - 0.0
27/05:00am 14.9 15.1 14.1 95 0.5 ENE 6 6 3 3 - - 0.0
27/04:30am 14.9 14.9 14.1 95 0.5 ENE 7 9 4 5 - - 0.0
27/04:00am 14.9 15.4 14.1 95 0.5 ENE 4 6 2 3 - - 0.0
27/03:30am 14.7 14.7 13.7 94 0.6 ENE 6 7 3 4 - - 0.0
27/03:00am 15.0 15.1 14.0 94 0.6 ENE 6 7 3 4 - - 0.0
27/02:30am 15.1 15.0 13.8 92 0.7 ESE 7 9 4 5 - - 0.0
27/02:00am 15.1 15.0 13.8 92 0.7 E 7 9 4 5 - - 0.0
27/01:30am 15.2 15.2 13.7 91 0.8 E 6 6 3 3 - - 0.0
27/01:00am 15.1 15.1 13.6 91 0.8 ESE 6 7 3 4 - - 0.0
27/12:30am 15.6 16.0 13.8 89 1.0 SE 4 6 2 3 - - 0.0
27/12:00am 15.6 15.6 13.6 88 1.1 SSE 6 6 3 3 - - 0.0
 
Date/Time
CDT
Temp
°C
App
Temp
°C
Dew
Point
Rel
Hum
%
Delta-T
°C
Wind Press
QNH
hPa
Press
MSL
hPa
Rain
since 9 am
mm
Dir
 
Spd
km/h
Gust
km/h
Spd
kts
Gust
kts
26/11:30pm 15.7 15.7 13.5 87 1.2 ESE 6 7 3 4 - - 0.0
26/11:00pm 15.5 15.2 13.2 86 1.3 ESE 7 9 4 5 - - 0.0
26/10:30pm 16.1 16.0 13.4 84 1.5 SSE 6 7 3 4 - - 0.0
26/10:00pm 17.1 16.7 14.0 82 1.8 SSE 9 11 5 6 - - 0.0
26/09:30pm 17.9 17.2 14.2 79 2.1 S 11 13 6 7 - - 0.0
26/09:00pm 18.3 17.6 13.2 72 2.9 S 9 13 5 7 - - 0.0
26/08:30pm 19.4 18.5 12.7 65 3.8 S 9 11 5 6 - - 0.0
26/08:00pm 20.8 19.8 13.5 63 4.2 S 11 13 6 7 - - 0.0
26/07:30pm 21.8 20.9 13.7 60 4.7 S 11 15 6 8 - - 0.0
26/07:00pm 22.7 21.1 12.9 54 5.7 S 13 17 7 9 - - 0.0
26/06:30pm 24.3 22.7 12.9 49 6.6 S 13 17 7 9 - - 0.0
26/06:00pm 24.9 23.5 12.2 45 7.3 SSE 11 15 6 8 - - 0.0
26/05:30pm 25.6 23.8 12.1 43 7.8 SSE 13 20 7 11 - - 0.0
26/05:00pm 26.9 24.5 11.4 38 8.9 S 15 20 8 11 - - 0.0
26/04:30pm 27.3 24.9 11.3 37 9.2 S 15 24 8 13 - - 0.0
26/04:00pm 28.1 24.8 10.8 34 9.9 SSE 19 24 10 13 - - 0.0
26/03:30pm 29.2 26.5 10.3 31 10.8 S 15 22 8 12 - - 0.0
26/03:00pm 29.2 26.8 9.9 30 10.9 S 13 19 7 10 - - 0.0
26/02:30pm 28.5 25.6 9.7 31 10.6 SSE 15 26 8 14 - - 0.0
26/02:00pm 28.8 27.0 7.9 27 11.4 SSE 7 15 4 8 - - 0.0
26/01:30pm 28.6 26.7 6.7 25 11.7 SW 6 11 3 6 - - 0.0
26/01:00pm 27.9 25.9 6.1 25 11.5 W 6 15 3 8 - - 0.0
26/12:30pm 27.1 24.9 6.0 26 11.1 SSW 7 13 4 7 - - 0.0
26/12:00pm 26.3 24.2 5.8 27 10.7 ENE 6 11 3 6 - - 0.0
26/11:30am 25.0 23.7 6.2 30 9.8 SW 2 7 1 4 - - 0.0
26/11:00am 23.3 21.2 5.7 32 9.0 SE 6 11 3 6 - - 0.0
26/10:30am 22.7 21.1 6.5 35 8.3 ESE 4 6 2 3 - - 0.0
26/10:00am 21.3 19.8 6.8 39 7.4 E 4 6 2 3 - - 0.0
26/09:30am 20.1 18.7 8.8 48 6.0 SSE 6 9 3 5 - - 0.0
26/09:00am 18.6 17.8 9.7 56 4.7 S 4 9 2 5 - - -
26/08:30am 16.7 15.3 8.9 60 4.1 SSW 6 7 3 4 - - -
26/08:00am 15.1 12.8 7.6 61 3.8 SW 9 11 5 6 - - -
26/07:30am 11.7 9.7 7.2 74 2.2 SW 7 9 4 5 - - -
26/07:00am 12.1 10.2 7.6 74 2.2 SSW 7 7 4 4 - - -
26/06:30am 11.5 9.5 8.5 82 1.5 SW 9 11 5 6 - - -
26/06:00am 12.3 11.5 9.7 84 1.3 W 4 6 2 3 - - -
26/05:30am 12.4 11.6 9.8 84 1.3 W 4 4 2 2 - - -
26/05:00am 12.0 11.2 9.6 85 1.2 WNW 4 6 2 3 - - -
26/04:30am 12.4 11.3 10.6 89 0.9 N 7 11 4 6 - - -
26/04:00am 11.5 10.2 9.8 89 0.9 N 7 9 4 5 - - -
26/03:30am 11.4 10.6 9.7 89 0.9 NW 4 6 2 3 - - -
26/03:00am 11.7 10.5 9.4 86 1.2 ENE 6 7 3 4 - - 0.0
26/02:30am 12.5 12.3 10.6 88 1.0 SSW 2 6 1 3 - - -
26/02:00am 12.3 11.6 10.2 87 1.1 SSW 4 7 2 4 - - -
26/01:30am 12.8 12.7 10.7 87 1.1 SW 2 4 1 2 - - -
26/01:00am 12.4 11.3 10.1 86 1.2 SW 6 7 3 4 - - -
26/12:30am 12.4 11.1 9.8 84 1.3 SSW 7 11 4 6 - - -
26/12:00am 13.0 11.9 10.5 85 1.3 NE 7 7 4 4 - - -
 
Date/Time
CDT
Temp
°C
App
Temp
°C
Dew
Point
Rel
Hum
%
Delta-T
°C
Wind Press
QNH
hPa
Press
MSL
hPa
Rain
since 9 am
mm
Dir
 
Spd
km/h
Gust
km/h
Spd
kts
Gust
kts
25/11:30pm 13.1 12.0 10.5 84 1.4 NE 7 9 4 5 - - -

Other Formats:

Comma delimited format used in spreadsheet applications
http://www.bom.gov.au/fwo/IDS60801/IDS60801.94807.axf

JavaScript Object Notation format (JSON) in row-major order
http://www.bom.gov.au/fwo/IDS60801/IDS60801.94807.json